KMSP/MSP METAR and TAF weather

Enter ICAO airport designator
Station Type Date Time Source
KMSP METAR 2019/12/06 13:53 UTC NOAA

KMSP 061353Z 31009KT 10SM CLR M08/M11 A3035 RMK AO2 SLP292 T10831111


Station Type Date Time Source
KMSP Decoded METAR 2019/12/06 13:53 UTC NOAA

MINNEAPOLIS-ST PAUL INTERNATIONAL , MN, United States (KMSP) 44-52N 93-13W 265M
Dec 06, 2019 - 08:53 AM EST / 2019.12.06 1353 UTC
Wind: from the NW (310 degrees) at 10 MPH (9 KT):0
Visibility: 10 mile(s):0
Sky conditions: clear
Temperature: 17.1 F (-8.3 C)
Windchill: 5 F (-15 C):1
Dew Point: 12.0 F (-11.1 C)
Relative Humidity: 80%
Pressure (altimeter): 30.35 in. Hg (1027 hPa)
ob: KMSP 061353Z 31009KT 10SM CLR M08/M11 A3035 RMK AO2 SLP292 T10831111
cycle: 14

Station Type Date Time Source
KMSP TAF 2019/12/06 12:24 UTC NOAA

TAF KMSP 061123Z 0612/0718 32008KT P6SM FEW015 FEW025
FM061700 25004KT P6SM SCT025 SCT250
FM062300 16004KT P6SM OVC070

Example: see airport list